createdAt,value
2019-03-28T08:05:11.810Z,5.22
2019-03-28T08:07:47.169Z,4.33
2019-03-28T08:10:19.349Z,4.97
2019-03-28T08:12:56.279Z,11.35
2019-03-28T08:15:27.456Z,5.70
2019-03-28T08:17:58.706Z,10.53
2019-03-28T08:20:29.709Z,3.22
2019-03-28T08:23:00.643Z,3.95
2019-03-28T08:25:31.664Z,2.83
2019-03-28T08:28:02.636Z,3.10
2019-03-28T08:30:36.405Z,4.72
2019-03-28T08:33:08.510Z,2.60
2019-03-28T08:35:39.588Z,2.77
2019-03-28T08:38:10.638Z,3.58
2019-03-28T08:40:43.438Z,2.30
2019-03-28T08:43:15.934Z,2.90
2019-03-28T08:45:46.840Z,3.57
2019-03-28T08:48:19.374Z,2.27
2019-03-28T08:50:51.950Z,6.70
2019-03-28T08:53:22.915Z,3.22
2019-03-28T08:55:53.874Z,2.45
2019-03-28T08:58:24.783Z,2.77
2019-03-28T09:00:56.831Z,3.70
2019-03-28T09:03:30.642Z,2.70
2019-03-28T09:06:02.466Z,2.20
2019-03-28T09:08:33.491Z,2.37
2019-03-28T09:11:04.454Z,3.10
2019-03-28T09:13:35.311Z,2.22
2019-03-28T09:16:06.280Z,3.20
2019-03-28T09:18:37.160Z,2.77
2019-03-28T09:21:08.116Z,2.22
2019-03-28T09:23:39.041Z,3.00
2019-03-28T09:26:11.529Z,2.58
2019-03-28T09:28:42.618Z,2.52
2019-03-28T09:31:19.719Z,2.50
2019-03-28T09:33:46.125Z,2.10
2019-03-28T09:36:17.140Z,2.45
2019-03-28T09:38:47.880Z,2.60
2019-03-28T09:41:18.786Z,2.87
2019-03-28T09:43:55.533Z,2.90
2019-03-28T09:46:22.244Z,2.60
2019-03-28T09:48:53.159Z,2.37
2019-03-28T09:51:24.098Z,3.12
2019-03-28T09:53:54.941Z,2.95
2019-03-28T09:56:25.817Z,2.83
2019-03-28T09:58:56.686Z,3.33
2019-03-28T10:01:27.742Z,3.20
2019-03-28T10:03:58.610Z,5.47
2019-03-28T10:06:30.251Z,3.15
2019-03-28T10:09:05.376Z,3.27
2019-03-28T10:11:36.390Z,2.95
2019-03-28T10:14:07.820Z,2.67
2019-03-28T10:16:40.349Z,2.67
2019-03-28T10:19:15.547Z,2.72
2019-03-28T10:24:17.387Z,2.70
2019-03-28T10:26:48.386Z,2.90
2019-03-28T10:29:19.249Z,2.98
2019-03-28T10:31:50.047Z,2.52
2019-03-28T10:34:20.885Z,3.30
2019-03-28T10:36:51.903Z,2.40
2019-03-28T10:39:22.807Z,5.22
2019-03-28T10:41:54.718Z,2.27
2019-03-28T10:44:25.880Z,1.95
2019-03-28T10:46:57.066Z,2.30
2019-03-28T10:49:28.071Z,1.72
2019-03-28T10:51:58.865Z,2.10
2019-03-28T10:54:29.711Z,2.10
2019-03-28T10:57:12.887Z,2.47
2019-03-28T10:59:33.199Z,1.63
2019-03-28T11:02:04.157Z,1.87
2019-03-28T11:04:35.237Z,1.90
2019-03-28T11:07:07.928Z,1.90
2019-03-28T11:09:38.880Z,1.55
2019-03-28T11:12:09.677Z,1.90
2019-03-28T11:14:40.613Z,1.90
2019-03-28T11:17:11.479Z,1.80
2019-03-28T11:19:42.493Z,1.80
2019-03-28T11:22:13.229Z,1.82
2019-03-28T11:24:46.350Z,1.70
2019-03-28T11:27:16.607Z,2.27
2019-03-28T11:29:47.454Z,4.53
2019-03-28T11:32:18.751Z,4.22
2019-03-28T11:34:49.741Z,2.40
2019-03-28T11:37:26.314Z,2.22
2019-03-28T11:39:53.248Z,1.22
2019-03-28T11:42:24.121Z,1.80
2019-03-28T11:44:55.023Z,1.75
2019-03-28T11:47:25.813Z,1.42
2019-03-28T11:49:56.716Z,3.60
2019-03-28T11:52:28.576Z,1.60
2019-03-28T11:54:59.432Z,1.35
2019-03-28T11:57:30.236Z,1.80
2019-03-28T12:00:01.479Z,1.65
2019-03-28T12:02:33.402Z,1.25
2019-03-28T12:05:05.387Z,1.90
2019-03-28T12:07:37.176Z,1.52
2019-03-28T12:10:10.186Z,1.50
2019-03-28T12:12:41.052Z,1.40
2019-03-28T12:15:12.064Z,1.45
2019-03-28T12:17:42.902Z,1.77
2019-03-28T12:20:13.994Z,1.50
2019-03-28T12:22:45.830Z,1.52
2019-03-28T12:25:16.644Z,1.50
2019-03-28T12:30:50.030Z,1.80
2019-03-28T12:33:20.901Z,2.40
2019-03-28T12:35:52.528Z,2.08
2019-03-28T12:38:23.591Z,1.57
2019-03-28T12:40:54.555Z,5.30
2019-03-28T12:43:25.423Z,4.42
2019-03-28T12:45:57.252Z,1.90
2019-03-28T12:48:28.157Z,1.60
2019-03-28T12:51:01.000Z,2.02
2019-03-28T12:53:32.057Z,1.52
2019-03-28T12:56:03.031Z,1.80
2019-03-28T12:58:33.807Z,1.42
2019-03-28T13:01:04.904Z,1.35
2019-03-28T13:03:45.282Z,3.20
2019-03-28T13:06:08.369Z,2.02
2019-03-28T13:08:41.116Z,2.05
2019-03-28T13:11:12.208Z,1.72
2019-03-28T13:13:43.105Z,1.80
2019-03-28T13:16:14.089Z,4.03
2019-03-28T13:18:44.978Z,2.25
2019-03-28T13:21:15.985Z,2.08
2019-03-28T13:23:46.731Z,2.60
2019-03-28T13:26:17.568Z,1.82
2019-03-28T13:28:48.374Z,1.98
2019-03-28T13:31:19.315Z,1.52
2019-03-28T13:33:50.192Z,1.60
2019-03-28T13:36:21.134Z,2.17
2019-03-28T13:38:53.574Z,1.60
2019-03-28T13:41:25.499Z,1.67
2019-03-28T13:43:56.752Z,1.72
2019-03-28T13:46:32.564Z,1.52
2019-03-28T13:49:04.679Z,1.40
2019-03-28T13:51:35.627Z,1.50
2019-03-28T13:54:06.529Z,1.75
2019-03-28T13:56:38.616Z,2.12
2019-03-28T13:59:09.689Z,1.40
2019-03-28T14:01:40.558Z,1.50
2019-03-28T14:04:11.369Z,2.12
2019-03-28T14:06:42.294Z,2.50
2019-03-28T14:09:14.043Z,1.60
2019-03-28T14:11:45.070Z,1.32
2019-03-28T14:14:15.946Z,1.50
2019-03-28T14:16:53.178Z,1.12
2019-03-28T14:19:23.346Z,1.70
2019-03-28T14:21:54.277Z,1.50
2019-03-28T14:24:25.184Z,1.82
2019-03-28T14:26:56.118Z,1.60
2019-03-28T14:29:30.106Z,1.90
2019-03-28T14:32:01.809Z,1.70
2019-03-28T14:34:32.837Z,1.80
2019-03-28T14:37:03.657Z,1.40
2019-03-28T14:39:35.380Z,1.40
2019-03-28T14:42:06.477Z,1.65
2019-03-28T14:44:37.280Z,1.87
2019-03-28T14:47:09.169Z,1.90
2019-03-28T14:49:40.063Z,1.50
2019-03-28T14:52:10.984Z,1.82
2019-03-28T14:54:41.854Z,1.92
2019-03-28T14:57:13.493Z,2.20
2019-03-28T14:59:46.010Z,2.10
2019-03-28T15:02:17.088Z,2.02
2019-03-28T15:04:48.032Z,1.82
2019-03-28T15:07:18.904Z,1.35
2019-03-28T15:09:50.617Z,1.92
2019-03-28T15:12:21.528Z,2.05
2019-03-28T15:14:52.400Z,2.10
2019-03-28T15:17:24.372Z,1.80
2019-03-28T15:19:55.235Z,2.37
2019-03-28T15:22:26.205Z,2.17
2019-03-28T15:24:57.723Z,2.10
2019-03-28T15:27:28.699Z,2.25
2019-03-28T15:29:59.589Z,1.87
2019-03-28T15:32:30.558Z,1.90
2019-03-28T15:35:01.363Z,1.95
2019-03-28T15:37:32.259Z,2.12
2019-03-28T15:40:04.332Z,2.42
2019-03-28T15:42:35.232Z,2.25
2019-03-28T15:45:09.048Z,1.87
2019-03-28T15:47:39.989Z,2.00
2019-03-28T15:50:10.763Z,4.35
2019-03-28T15:52:41.600Z,2.70
2019-03-28T15:55:14.714Z,6.15
2019-03-28T15:57:44.979Z,5.23
2019-03-28T16:00:15.840Z,3.10
2019-03-28T16:02:48.384Z,2.80
2019-03-28T16:05:19.327Z,3.15
2019-03-28T16:07:50.303Z,3.95
2019-03-28T16:10:21.952Z,2.67
2019-03-28T16:12:52.987Z,2.77
2019-03-28T16:15:23.772Z,2.52
2019-03-28T16:17:57.549Z,2.62
2019-03-28T16:20:27.199Z,5.03
2019-03-28T16:22:58.300Z,3.25
2019-03-28T16:25:29.309Z,4.03
2019-03-28T16:28:00.318Z,4.40
2019-03-28T16:30:35.682Z,4.80
2019-03-28T16:33:07.689Z,5.53
2019-03-28T16:35:38.563Z,4.42
2019-03-28T16:38:09.548Z,3.85
2019-03-28T16:40:40.502Z,3.52
2019-03-28T16:43:11.412Z,3.85
2019-03-28T16:45:42.300Z,11.68
2019-03-28T16:48:13.321Z,6.08
2019-03-28T16:50:44.184Z,3.80
2019-03-28T16:53:15.079Z,4.42
2019-03-28T16:56:17.127Z,4.07
2019-03-28T16:58:45.872Z,3.95
2019-03-28T17:01:16.835Z,14.60
2019-03-28T17:03:47.968Z,9.80
2019-03-28T17:06:18.869Z,9.65
2019-03-28T17:08:49.877Z,6.85
2019-03-28T17:11:23.803Z,6.50
2019-03-28T17:13:56.736Z,5.65
2019-03-28T17:16:28.633Z,5.97
2019-03-28T17:19:02.949Z,6.53
2019-03-28T17:21:34.863Z,6.33
2019-03-28T17:24:05.800Z,7.45
2019-03-28T17:26:36.694Z,4.55
2019-03-28T17:29:07.640Z,5.05
2019-03-28T17:31:38.634Z,7.70
2019-03-28T17:34:09.820Z,5.75
2019-03-28T17:36:40.691Z,5.08
2019-03-28T17:39:11.695Z,4.50
2019-03-28T17:41:42.646Z,4.17
2019-03-28T17:44:14.670Z,5.25
2019-03-28T17:46:45.614Z,11.78
2019-03-28T17:49:16.626Z,6.35
2019-03-28T17:51:47.600Z,6.42
2019-03-28T17:54:20.159Z,6.80
2019-03-28T17:56:50.975Z,6.08
2019-03-28T17:59:22.032Z,7.28
2019-03-28T18:01:54.471Z,6.45
2019-03-28T18:04:25.402Z,6.53
2019-03-28T18:06:57.989Z,6.80
2019-03-28T18:12:04.635Z,6.92
2019-03-28T18:14:35.723Z,7.55
2019-03-28T18:17:06.503Z,7.53
2019-03-28T18:19:38.954Z,13.65
2019-03-28T18:22:09.950Z,10.45
2019-03-28T18:24:43.983Z,9.10
2019-03-28T18:27:17.045Z,8.93
2019-03-28T18:29:51.075Z,10.20
2019-03-28T18:32:21.997Z,10.53
2019-03-28T18:35:04.644Z,9.00
2019-03-28T18:37:28.405Z,9.70
2019-03-28T18:40:04.561Z,8.60
2019-03-28T18:42:37.571Z,10.70
2019-03-28T18:45:08.675Z,9.15
2019-03-28T18:47:39.553Z,9.10
2019-03-28T18:50:10.478Z,9.73
2019-03-28T18:52:45.349Z,12.13
2019-03-28T18:55:16.798Z,11.33
2019-03-28T18:57:47.782Z,10.32
2019-03-28T19:00:19.577Z,9.53
2019-03-28T19:02:53.403Z,10.05
2019-03-28T19:05:27.802Z,9.90
2019-03-28T19:08:01.667Z,10.13
2019-03-28T19:10:34.303Z,11.22
2019-03-28T19:13:08.703Z,10.28
2019-03-28T19:15:41.757Z,9.20
2019-03-28T19:18:12.599Z,9.30
2019-03-28T19:20:45.739Z,11.22
2019-03-28T19:23:20.858Z,10.28
2019-03-28T19:25:55.374Z,10.32
2019-03-28T19:28:29.133Z,9.33
2019-03-28T19:31:00.999Z,9.50
2019-03-28T19:33:45.567Z,14.15
2019-03-28T19:36:16.766Z,17.90
2019-03-28T19:38:47.970Z,12.90
2019-03-28T19:41:20.717Z,11.43
2019-03-28T19:43:51.766Z,10.10
2019-03-28T19:46:29.513Z,9.20
2019-03-28T19:48:59.869Z,10.63
2019-03-28T19:51:30.971Z,9.30
2019-03-28T19:54:05.820Z,10.18
2019-03-28T19:56:42.738Z,9.75
2019-03-28T19:59:13.534Z,9.80
2019-03-28T20:01:44.405Z,9.78
2019-03-28T20:04:15.436Z,10.72
2019-03-28T20:06:50.883Z,9.28
2019-03-28T20:09:25.312Z,10.20
2019-03-28T20:12:02.893Z,11.15
2019-03-28T20:14:34.536Z,11.00
2019-03-28T20:17:08.058Z,10.95
2019-03-28T20:19:42.716Z,10.78
2019-03-28T20:22:17.775Z,12.05
2019-03-28T20:24:48.993Z,12.40
2019-03-28T20:27:23.052Z,12.93
2019-03-28T20:30:00.941Z,13.03
2019-03-28T20:32:32.286Z,11.97
2019-03-28T20:35:05.398Z,11.88
2019-03-28T20:37:37.843Z,12.75
2019-03-28T20:40:08.978Z,12.83
2019-03-28T20:42:40.160Z,13.32
2019-03-28T20:45:11.222Z,13.75
2019-03-28T20:47:42.409Z,17.32
2019-03-28T20:50:13.472Z,11.38
2019-03-28T20:52:44.798Z,12.03
2019-03-28T20:55:18.910Z,12.33
2019-03-28T20:57:50.649Z,12.60
2019-03-28T21:00:36.964Z,12.20
2019-03-28T21:03:08.074Z,11.85
2019-03-28T21:05:39.092Z,11.50
2019-03-28T21:08:10.296Z,10.75
2019-03-28T21:10:43.023Z,8.95
2019-03-28T21:13:13.890Z,11.75
2019-03-28T21:15:45.987Z,12.00
2019-03-28T21:18:23.200Z,10.25
2019-03-28T21:20:59.761Z,11.12
2019-03-28T21:23:32.083Z,10.20
2019-03-28T21:26:02.951Z,12.53
2019-03-28T21:28:46.441Z,12.23
2019-03-28T21:31:11.599Z,12.23
2019-03-28T21:33:46.013Z,11.75
2019-03-28T21:38:50.422Z,10.08
2019-03-28T21:41:21.376Z,10.78
2019-03-28T21:43:52.436Z,10.98
2019-03-28T21:46:25.005Z,12.18
2019-03-28T21:48:56.076Z,11.55
2019-03-28T21:51:27.027Z,10.05
2019-03-28T21:53:58.280Z,10.00
2019-03-28T21:56:29.983Z,10.55
2019-03-28T21:59:01.090Z,10.03
2019-03-28T22:01:33.771Z,10.80
2019-03-28T22:04:04.889Z,9.80
2019-03-28T22:06:42.794Z,9.73
2019-03-28T22:09:08.627Z,8.45
2019-03-28T22:11:41.138Z,11.10
2019-03-28T22:14:14.050Z,10.85
2019-03-28T22:16:49.927Z,10.08
2019-03-28T22:19:26.665Z,10.10
2019-03-28T22:21:59.737Z,10.08
2019-03-28T22:24:30.747Z,9.88
2019-03-28T22:27:01.766Z,10.20
2019-03-28T22:29:33.101Z,9.85
2019-03-28T22:32:11.591Z,10.85
2019-03-28T22:34:44.247Z,9.95
2019-03-28T22:37:15.277Z,10.38
2019-03-28T22:39:46.286Z,9.08
2019-03-28T22:42:17.092Z,9.48
2019-03-28T22:44:54.075Z,9.33
2019-03-28T22:47:26.524Z,9.00
2019-03-28T22:49:59.255Z,8.93
2019-03-28T22:52:30.138Z,10.03
2019-03-28T22:55:07.201Z,8.30
2019-03-28T22:57:38.092Z,8.08
2019-03-28T23:00:11.520Z,8.65
2019-03-28T23:02:43.990Z,8.80
2019-03-28T23:05:14.925Z,8.58
2019-03-28T23:07:49.030Z,8.65
2019-03-28T23:10:21.069Z,9.70
2019-03-28T23:12:52.015Z,9.73
2019-03-28T23:15:22.838Z,7.80
2019-03-28T23:17:54.480Z,8.15
2019-03-28T23:20:25.433Z,7.85
2019-03-28T23:22:56.283Z,8.60
2019-03-28T23:25:27.167Z,8.43
2019-03-28T23:27:58.065Z,8.05
2019-03-28T23:30:28.955Z,7.75
2019-03-28T23:32:59.789Z,7.62
2019-03-28T23:35:30.734Z,8.35
2019-03-28T23:38:01.629Z,7.62
2019-03-28T23:40:32.455Z,8.03
2019-03-28T23:43:03.221Z,7.70
2019-03-28T23:45:36.123Z,8.05
2019-03-28T23:48:06.891Z,7.80
2019-03-28T23:50:37.711Z,7.62
2019-03-28T23:53:08.974Z,8.40
2019-03-28T23:55:39.940Z,9.00
2019-03-28T23:58:10.720Z,8.80
